createdAt,value
2023-03-16T00:00:00.944Z,1.1
2023-03-16T00:01:00.924Z,1.1
2023-03-16T00:02:01.028Z,1.1
2023-03-16T00:03:01.020Z,1.1
2023-03-16T00:04:00.924Z,1.1
2023-03-16T00:05:00.965Z,1.1
2023-03-16T00:06:00.950Z,1.1
2023-03-16T00:07:00.947Z,1.1
2023-03-16T00:08:00.914Z,1.1
2023-03-16T00:09:00.866Z,1.1
2023-03-16T00:10:00.868Z,1.1
2023-03-16T00:11:00.826Z,1.1
2023-03-16T00:12:00.799Z,1.1
2023-03-16T00:13:00.754Z,1.1
2023-03-16T00:14:00.745Z,1.1
2023-03-16T00:15:00.708Z,1.1
2023-03-16T00:16:00.730Z,1.1
2023-03-16T00:17:00.666Z,1.1
2023-03-16T00:18:00.644Z,1.1
2023-03-16T00:19:00.582Z,1.1
2023-03-16T00:20:00.612Z,1.1
2023-03-16T00:21:01.405Z,1.1
2023-03-16T00:22:00.605Z,1.1
2023-03-16T00:23:00.594Z,1.1
2023-03-16T00:24:00.600Z,1.1
2023-03-16T00:25:00.597Z,1.1
2023-03-16T00:26:00.602Z,1.1
2023-03-16T00:27:00.597Z,1.1
2023-03-16T00:28:00.580Z,1.1
2023-03-16T00:29:00.601Z,1.1
2023-03-16T00:30:00.613Z,1.1
2023-03-16T00:31:00.580Z,1.1
2023-03-16T00:32:00.703Z,1.1
2023-03-16T00:33:00.603Z,1.1
2023-03-16T00:34:00.583Z,1.1
2023-03-16T00:35:00.586Z,1.1
2023-03-16T00:36:00.621Z,1.1
2023-03-16T00:37:00.610Z,1.1
2023-03-16T00:38:01.134Z,1.1
2023-03-16T00:39:00.592Z,1.1
2023-03-16T00:40:00.651Z,1.1
2023-03-16T00:41:00.588Z,1.1
2023-03-16T00:42:00.607Z,1.1
2023-03-16T00:43:00.590Z,1.1
2023-03-16T00:44:00.592Z,1.1
2023-03-16T00:45:00.630Z,1.1
2023-03-16T00:46:00.659Z,1.1
2023-03-16T00:47:00.630Z,1.1
2023-03-16T00:48:00.590Z,1.1
2023-03-16T00:49:00.596Z,1.1
2023-03-16T00:50:00.596Z,1.1
2023-03-16T00:51:00.615Z,1.1
2023-03-16T00:52:00.621Z,1.1
2023-03-16T00:53:00.601Z,1.1
2023-03-16T00:54:00.602Z,1.1
2023-03-16T00:55:00.625Z,1.1
2023-03-16T00:56:00.621Z,1.1
2023-03-16T00:57:00.636Z,1.1
2023-03-16T00:58:00.611Z,1.1
2023-03-16T00:59:00.609Z,1.1
2023-03-16T01:00:00.686Z,1.1
2023-03-16T01:01:02.897Z,1.1
2023-03-16T01:02:00.643Z,1.1
2023-03-16T01:03:00.634Z,1.1
2023-03-16T01:04:00.609Z,1.1
2023-03-16T01:05:00.623Z,1.1
2023-03-16T01:06:00.636Z,1.1
2023-03-16T01:07:00.640Z,1.1
2023-03-16T01:08:00.615Z,1.1
2023-03-16T01:09:00.617Z,1.1
2023-03-16T01:10:00.634Z,1.1
2023-03-16T01:11:00.639Z,1.1
2023-03-16T01:12:00.614Z,1.1
2023-03-16T01:13:00.674Z,1.1
2023-03-16T01:14:00.621Z,1.1
2023-03-16T01:15:00.622Z,1.1
2023-03-16T01:16:00.642Z,1.1
2023-03-16T01:17:00.681Z,1.1
2023-03-16T01:18:00.634Z,1.1
2023-03-16T01:19:00.653Z,1.1
2023-03-16T01:20:00.624Z,1.1
2023-03-16T01:21:00.627Z,1.1
2023-03-16T01:22:00.641Z,1.1
2023-03-16T01:23:00.644Z,1.1
2023-03-16T01:24:00.645Z,1.1
2023-03-16T01:25:00.649Z,1.1
2023-03-16T01:26:00.631Z,1.1
2023-03-16T01:27:00.645Z,1.1
2023-03-16T01:28:00.656Z,1.1
2023-03-16T01:29:00.681Z,1.1
2023-03-16T01:30:00.649Z,1.1
2023-03-16T01:31:00.672Z,1.1
2023-03-16T01:32:00.662Z,1.1
2023-03-16T01:33:00.690Z,1.1
2023-03-16T01:34:00.658Z,1.1
2023-03-16T01:35:00.657Z,1.1
2023-03-16T01:36:00.696Z,1.1
2023-03-16T01:37:00.643Z,1.1
2023-03-16T01:38:00.646Z,1.1
2023-03-16T01:39:00.657Z,1.1
2023-03-16T01:40:00.675Z,1.1
2023-03-16T01:41:00.650Z,1.1
2023-03-16T01:42:00.645Z,1.1
2023-03-16T01:43:00.680Z,1.1
2023-03-16T01:44:00.693Z,1.1
2023-03-16T01:45:00.654Z,1.1
2023-03-16T01:46:00.702Z,1.1
2023-03-16T01:47:00.693Z,1.1
2023-03-16T01:48:00.667Z,1.1
2023-03-16T01:49:00.688Z,1.1
2023-03-16T01:50:00.665Z,1.1
2023-03-16T01:51:00.655Z,1.1
2023-03-16T01:52:00.667Z,1.1
2023-03-16T01:53:00.659Z,1.1
2023-03-16T01:54:00.677Z,1.1
2023-03-16T01:55:00.705Z,1.1
2023-03-16T01:56:00.677Z,1.1
2023-03-16T01:57:00.662Z,1.1
2023-03-16T01:58:00.668Z,1.1
2023-03-16T01:59:00.692Z,1.1
2023-03-16T02:00:00.674Z,1.1
2023-03-16T02:01:00.833Z,1.1
2023-03-16T02:02:00.871Z,1.1
2023-03-16T02:03:00.680Z,1.1
2023-03-16T02:04:00.752Z,1.1
2023-03-16T02:05:01.090Z,1.1
2023-03-16T02:06:00.861Z,1.1
2023-03-16T02:07:00.794Z,1.1
2023-03-16T02:08:01.449Z,1.1
2023-03-16T02:09:00.857Z,1.1
2023-03-16T02:10:00.735Z,1.1
2023-03-16T02:11:01.073Z,1.1
2023-03-16T02:12:00.781Z,1.1
2023-03-16T02:13:00.776Z,1.1
2023-03-16T02:14:00.856Z,1.1
2023-03-16T02:15:00.870Z,1.1
2023-03-16T02:16:00.904Z,1.1
2023-03-16T02:17:00.760Z,1.1
2023-03-16T02:18:00.846Z,1.1
2023-03-16T02:19:00.798Z,1.1
2023-03-16T02:20:00.783Z,1.1
2023-03-16T02:21:00.887Z,1.1
2023-03-16T02:22:00.872Z,1.1
2023-03-16T02:23:00.848Z,1.1
2023-03-16T02:24:00.789Z,1.1
2023-03-16T02:25:00.865Z,1.1
2023-03-16T02:26:00.854Z,1.1
2023-03-16T02:27:00.906Z,1.1
2023-03-16T02:28:00.819Z,1.1
2023-03-16T02:29:00.877Z,1.1
2023-03-16T02:30:00.865Z,1.1
2023-03-16T02:31:00.891Z,1.1
2023-03-16T02:32:00.799Z,1.1
2023-03-16T02:33:00.928Z,1.1
2023-03-16T02:34:00.902Z,1.1
2023-03-16T02:35:00.940Z,1.1
2023-03-16T02:36:00.905Z,1.1
2023-03-16T02:37:00.811Z,1.1
2023-03-16T02:38:00.796Z,1.1
2023-03-16T02:39:00.862Z,1.1
2023-03-16T02:40:01.836Z,1.1
2023-03-16T02:41:00.734Z,1.1
2023-03-16T02:42:00.795Z,1.1
2023-03-16T02:43:00.854Z,1.1
2023-03-16T02:44:00.888Z,1.1
2023-03-16T02:45:00.795Z,1.1
2023-03-16T02:46:00.862Z,1.1
2023-03-16T02:47:00.800Z,1.1
2023-03-16T02:48:00.731Z,1.1
2023-03-16T02:49:00.957Z,1.1
2023-03-16T02:50:00.741Z,1.1
2023-03-16T02:51:00.739Z,1.1
2023-03-16T02:52:00.720Z,1.1
2023-03-16T02:53:00.740Z,1.1
2023-03-16T02:54:00.744Z,1.1
2023-03-16T02:55:00.744Z,1.1
2023-03-16T02:56:00.723Z,1.1
2023-03-16T02:57:00.722Z,1.1
2023-03-16T02:58:00.731Z,1.1
2023-03-16T02:59:00.750Z,1.1
2023-03-16T03:00:01.797Z,1.1
2023-03-16T03:01:01.799Z,1.1
2023-03-16T03:02:01.757Z,1.1
2023-03-16T03:03:01.809Z,1.1
2023-03-16T03:04:01.765Z,1.1
2023-03-16T03:05:01.763Z,1.1
2023-03-16T03:06:01.782Z,1.1
2023-03-16T03:07:01.751Z,1.1
2023-03-16T03:08:01.757Z,1.1
2023-03-16T03:09:01.782Z,1.1
2023-03-16T03:10:01.787Z,1.1
2023-03-16T03:11:01.771Z,1.1
2023-03-16T03:12:01.767Z,1.1
2023-03-16T03:13:01.754Z,1.1
2023-03-16T03:14:01.787Z,1.1
2023-03-16T03:15:01.775Z,1.1
2023-03-16T03:16:01.858Z,1.1
2023-03-16T03:17:01.779Z,1.1
2023-03-16T03:18:01.760Z,1.1
2023-03-16T03:19:01.765Z,1.1
2023-03-16T03:20:01.800Z,1.1
2023-03-16T03:21:01.780Z,1.1
2023-03-16T03:22:01.764Z,1.1
2023-03-16T03:23:01.768Z,1.1
2023-03-16T03:24:01.772Z,1.1
2023-03-16T03:25:01.784Z,1.1
2023-03-16T03:26:01.778Z,1.1
2023-03-16T03:27:01.780Z,1.1
2023-03-16T03:28:01.829Z,1.1
2023-03-16T03:29:01.823Z,1.1
2023-03-16T03:30:01.837Z,1.1
2023-03-16T03:31:01.790Z,1.1
2023-03-16T03:32:01.791Z,1.1
2023-03-16T03:33:01.865Z,1.1
2023-03-16T03:34:01.780Z,1.1
2023-03-16T03:35:01.797Z,1.1
2023-03-16T03:36:01.861Z,1.1
2023-03-16T03:37:01.782Z,1.1
2023-03-16T03:38:01.814Z,1.1
2023-03-16T03:39:01.783Z,1.1
2023-03-16T03:40:01.823Z,1.1
2023-03-16T03:41:01.812Z,1.1
2023-03-16T03:42:01.790Z,1.1
2023-03-16T03:43:01.804Z,1.1
2023-03-16T03:44:01.821Z,1.1
2023-03-16T03:45:01.813Z,1.1
2023-03-16T03:46:01.973Z,1.1
2023-03-16T03:47:01.915Z,1.1
2023-03-16T03:48:01.808Z,1.1
2023-03-16T03:49:01.812Z,1.1
2023-03-16T03:50:01.853Z,1.1
2023-03-16T03:51:01.805Z,1.1
2023-03-16T03:52:01.809Z,1.1
2023-03-16T03:53:01.806Z,1.1
2023-03-16T03:54:01.805Z,1.1
2023-03-16T03:55:01.818Z,1.1
2023-03-16T03:56:01.823Z,1.1
2023-03-16T03:57:01.818Z,1.1
2023-03-16T03:58:02.196Z,1.1
2023-03-16T03:59:01.809Z,1.1
2023-03-16T04:00:01.858Z,1.1
2023-03-16T04:01:01.826Z,1.1
2023-03-16T04:02:01.961Z,1.1
2023-03-16T04:03:01.913Z,1.1
2023-03-16T04:04:01.815Z,1.1
2023-03-16T04:05:01.848Z,1.1
2023-03-16T04:06:01.813Z,1.1
2023-03-16T04:07:01.829Z,1.1
2023-03-16T04:08:01.833Z,1.1
2023-03-16T04:09:01.822Z,1.1
2023-03-16T04:10:01.989Z,1.1
2023-03-16T04:11:01.833Z,1.1
2023-03-16T04:12:02.587Z,1.1
2023-03-16T04:13:01.833Z,1.1
2023-03-16T04:14:01.843Z,1.1
2023-03-16T04:15:01.852Z,1.1
2023-03-16T04:16:01.818Z,1.1
2023-03-16T04:17:02.005Z,1.1
2023-03-16T04:18:01.828Z,1.1
2023-03-16T04:19:01.849Z,1.1
2023-03-16T04:20:01.880Z,1.1
2023-03-16T04:21:01.828Z,1.1
2023-03-16T04:22:01.851Z,1.1
2023-03-16T04:23:01.832Z,1.1
2023-03-16T04:24:01.843Z,1.1
2023-03-16T04:25:01.861Z,1.1
2023-03-16T04:26:01.859Z,1.1
2023-03-16T04:27:01.852Z,1.1
2023-03-16T04:28:01.831Z,1.1
2023-03-16T04:29:01.868Z,1.1
2023-03-16T04:30:01.862Z,1.1
2023-03-16T04:31:01.935Z,1.1
2023-03-16T04:32:01.903Z,1.1
2023-03-16T04:33:01.903Z,1.1
2023-03-16T04:34:01.847Z,1.1
2023-03-16T04:35:01.872Z,1.1
2023-03-16T04:36:01.911Z,1.1
2023-03-16T04:37:01.860Z,1.1
2023-03-16T04:38:01.853Z,1.1
2023-03-16T04:39:01.853Z,1.1
2023-03-16T04:40:01.953Z,1.1
2023-03-16T04:41:01.856Z,1.1
2023-03-16T04:42:01.869Z,1.1
2023-03-16T04:43:01.852Z,1.1
2023-03-16T04:44:01.871Z,1.1
2023-03-16T04:45:01.885Z,1.1
2023-03-16T04:46:01.919Z,1.1
2023-03-16T04:47:01.871Z,1.1
2023-03-16T04:48:01.865Z,1.1
2023-03-16T04:49:01.857Z,1.1
2023-03-16T04:50:01.915Z,1.1
2023-03-16T04:51:01.880Z,1.1
2023-03-16T04:52:01.879Z,1.1
2023-03-16T04:53:01.884Z,1.1
2023-03-16T04:54:01.891Z,1.1
2023-03-16T04:55:01.887Z,1.1
2023-03-16T04:56:01.880Z,1.1
2023-03-16T04:57:01.868Z,1.1
2023-03-16T04:58:01.911Z,1.1
2023-03-16T04:59:01.923Z,1.1
2023-03-16T05:00:01.943Z,1.1
2023-03-16T05:01:01.883Z,1.1
2023-03-16T05:02:01.863Z,1.1
2023-03-16T05:03:01.883Z,1.1
2023-03-16T05:04:01.879Z,1.1
2023-03-16T05:05:02.011Z,1.1
2023-03-16T05:06:01.962Z,1.1
2023-03-16T05:07:01.890Z,1.1
2023-03-16T05:08:01.929Z,1.1
2023-03-16T05:09:01.872Z,1.1
2023-03-16T05:10:01.898Z,1.1
2023-03-16T05:11:01.906Z,1.1
2023-03-16T05:12:01.888Z,1.2
2023-03-16T05:13:01.890Z,1.5
2023-03-16T05:14:01.887Z,1.9
2023-03-16T05:15:01.934Z,2.3
2023-03-16T05:16:02.069Z,2.7
2023-03-16T05:17:01.895Z,3.3
2023-03-16T05:18:01.923Z,4
2023-03-16T05:19:01.926Z,4.8
2023-03-16T05:20:02.052Z,5.9
2023-03-16T05:21:01.954Z,7.1
2023-03-16T05:22:01.913Z,8.5
2023-03-16T05:23:01.972Z,10.2
2023-03-16T05:24:01.936Z,12.2
2023-03-16T05:25:01.933Z,14.6
2023-03-16T05:26:02.002Z,17.2
2023-03-16T05:27:01.957Z,20.4
2023-03-16T05:28:01.933Z,24.1
2023-03-16T05:29:02.012Z,28.1
2023-03-16T05:30:01.957Z,32.9
2023-03-16T05:31:02.005Z,37.5
2023-03-16T05:32:01.929Z,43.3
2023-03-16T05:33:02.052Z,49.3
2023-03-16T05:34:02.290Z,55.6
2023-03-16T05:35:01.970Z,61.9
2023-03-16T05:36:02.042Z,69
2023-03-16T05:37:02.027Z,76.8
2023-03-16T05:38:01.942Z,85.5
2023-03-16T05:39:01.947Z,94.1
2023-03-16T05:40:02.190Z,103.5
2023-03-16T05:41:04.574Z,112.6
2023-03-16T05:42:01.968Z,123.9
2023-03-16T05:43:02.090Z,136.3
2023-03-16T05:44:01.951Z,148.2
2023-03-16T05:45:02.152Z,159.3
2023-03-16T05:46:02.109Z,171.1
2023-03-16T05:47:02.194Z,183.8
2023-03-16T05:48:02.262Z,195.2
2023-03-16T05:49:02.060Z,207.2
2023-03-16T05:50:02.008Z,222.6
2023-03-16T05:51:02.000Z,239.2
2023-03-16T05:52:02.885Z,253.9
2023-03-16T05:53:02.013Z,269.5
2023-03-16T05:54:02.025Z,289.6
2023-03-16T05:55:02.090Z,303.8
2023-03-16T05:56:02.069Z,326.4
2023-03-16T05:57:02.010Z,346.5
2023-03-16T05:58:03.823Z,367.8
2023-03-16T05:59:02.029Z,381.3
2023-03-16T06:00:02.140Z,404.8
2023-03-16T06:01:02.084Z,424.6
2023-03-16T06:02:02.063Z,445.4
2023-03-16T06:03:02.047Z,461.7
2023-03-16T06:04:02.141Z,484.3
2023-03-16T06:05:02.312Z,502
2023-03-16T06:06:02.211Z,514.1
2023-03-16T06:07:02.030Z,532.9
2023-03-16T06:08:02.167Z,552.4
2023-03-16T06:09:00.633Z,579.4
2023-03-16T06:10:00.637Z,593.4
2023-03-16T06:11:00.656Z,607.8
2023-03-16T06:12:00.624Z,615.1
2023-03-16T06:13:00.636Z,637.6
2023-03-16T06:14:00.636Z,653
2023-03-16T06:15:00.629Z,668.8
2023-03-16T06:16:00.682Z,685.1
2023-03-16T06:17:00.660Z,701.6
2023-03-16T06:18:00.633Z,718.6
2023-03-16T06:19:00.633Z,736
2023-03-16T06:20:00.649Z,753.8
2023-03-16T06:21:00.653Z,762.9
2023-03-16T06:22:00.694Z,781.4
2023-03-16T06:23:00.642Z,800.3
2023-03-16T06:24:00.661Z,809.9
2023-03-16T06:25:00.643Z,819.6
2023-03-16T06:26:00.664Z,829.5
2023-03-16T06:27:00.660Z,839.5
2023-03-16T06:28:00.641Z,849.6
2023-03-16T06:29:00.647Z,849.6
2023-03-16T06:30:00.665Z,859.8
2023-03-16T06:31:00.661Z,880.6
2023-03-16T06:32:00.665Z,901.9
2023-03-16T06:33:00.697Z,912.8
2023-03-16T06:34:00.647Z,934.9
2023-03-16T06:35:00.670Z,934.9
2023-03-16T06:36:00.703Z,957.5
2023-03-16T06:37:00.649Z,969
2023-03-16T06:38:00.667Z,992.5
2023-03-16T06:39:00.671Z,1004.4
2023-03-16T06:40:00.678Z,1016.5
2023-03-16T06:41:00.686Z,1041.1
2023-03-16T06:42:00.682Z,1053.6
2023-03-16T06:43:00.656Z,1066.3
2023-03-16T06:44:00.655Z,1079.1
2023-03-16T06:45:00.680Z,1105.3
2023-03-16T06:46:00.742Z,1132
2023-03-16T06:47:00.684Z,1145.6
2023-03-16T06:48:00.670Z,1173.3
2023-03-16T06:49:00.712Z,1201.7
2023-03-16T06:50:00.692Z,1216.2
2023-03-16T06:51:00.678Z,1245.7
2023-03-16T06:52:00.666Z,1260.7
2023-03-16T06:53:00.664Z,1275.8
2023-03-16T06:54:00.668Z,1306.7
2023-03-16T06:55:00.692Z,1338.3
2023-03-16T06:56:00.697Z,1370.7
2023-03-16T06:57:00.691Z,1387.2
2023-03-16T06:58:00.683Z,1420.8
2023-03-16T06:59:00.679Z,1437.9
2023-03-16T07:00:00.710Z,1455.2
2023-03-16T07:01:00.745Z,1472.7
2023-03-16T07:02:00.672Z,1508.3
2023-03-16T07:03:00.686Z,1544.8
2023-03-16T07:04:00.721Z,1582.3
2023-03-16T07:05:00.710Z,1601.3
2023-03-16T07:06:00.674Z,1620.5
2023-03-16T07:07:00.698Z,1659.7
2023-03-16T07:08:00.679Z,1659.7
2023-03-16T07:09:00.688Z,1679.7
2023-03-16T07:10:00.732Z,1720.4
2023-03-16T07:11:00.693Z,1720.4
2023-03-16T07:12:00.716Z,1720.4
2023-03-16T07:13:00.708Z,1741
2023-03-16T07:14:00.717Z,1720.4
2023-03-16T07:15:00.735Z,1741
2023-03-16T07:16:00.692Z,1720.4
2023-03-16T07:17:00.804Z,1720.4
2023-03-16T07:18:00.705Z,1741
2023-03-16T07:19:00.717Z,1741
2023-03-16T07:20:00.709Z,1741
2023-03-16T07:21:00.720Z,1762
2023-03-16T07:22:00.699Z,1762
2023-03-16T07:23:00.721Z,1804.7
2023-03-16T07:24:00.718Z,1826.4
2023-03-16T07:25:00.720Z,1826.4
2023-03-16T07:26:00.695Z,1826.4
2023-03-16T07:27:00.718Z,1804.7
2023-03-16T07:28:00.701Z,1826.4
2023-03-16T07:29:00.722Z,1826.4
2023-03-16T07:30:00.725Z,1848.4
2023-03-16T07:31:04.234Z,1848.4
2023-03-16T07:32:00.755Z,1870.6
2023-03-16T07:33:00.752Z,1870.6
2023-03-16T07:34:00.726Z,1893.1
2023-03-16T07:35:00.734Z,1915.9
2023-03-16T07:36:00.787Z,1938.9
2023-03-16T07:37:00.716Z,1915.9
2023-03-16T07:38:00.732Z,1938.9
2023-03-16T07:39:00.713Z,1938.9
2023-03-16T07:40:00.752Z,1962.2
2023-03-16T07:41:00.729Z,1985.8
2023-03-16T07:42:00.725Z,2009.8
2023-03-16T07:43:00.752Z,2034
2023-03-16T07:44:00.728Z,2058.4
2023-03-16T07:45:00.727Z,2083.2
2023-03-16T07:46:00.758Z,2108.2
2023-03-16T07:47:00.724Z,2133.6
2023-03-16T07:48:00.741Z,2159.2
2023-03-16T07:49:00.729Z,2211.5
2023-03-16T07:50:00.722Z,2238.1
2023-03-16T07:51:00.754Z,2238.1
2023-03-16T07:52:00.751Z,2265.1
2023-03-16T07:53:00.746Z,2265.1
2023-03-16T07:54:00.745Z,2292.3
2023-03-16T07:55:00.773Z,2347.8
2023-03-16T07:56:00.729Z,2319.9
2023-03-16T07:57:00.755Z,2376
2023-03-16T07:58:00.773Z,2376
2023-03-16T07:59:00.739Z,2319.9
2023-03-16T08:00:00.728Z,2347.8
2023-03-16T08:01:00.753Z,2376
2023-03-16T08:02:00.777Z,2492.4
2023-03-16T08:03:00.760Z,2522.4
2023-03-16T08:04:00.827Z,2614.6
2023-03-16T08:05:00.750Z,2614.6
2023-03-16T08:06:00.748Z,2614.6
2023-03-16T08:07:00.736Z,2710.1
2023-03-16T08:08:00.754Z,2742.6
2023-03-16T08:09:00.748Z,2742.6
2023-03-16T08:10:00.754Z,2742.6
2023-03-16T08:11:00.769Z,2742.6
2023-03-16T08:12:00.751Z,2842.8
2023-03-16T08:13:00.834Z,2877.1
2023-03-16T08:14:00.747Z,2911.7
2023-03-16T08:15:00.776Z,2877.1
2023-03-16T08:16:00.936Z,2911.7
2023-03-16T08:17:00.769Z,2982.2
2023-03-16T08:18:00.764Z,3018
2023-03-16T08:19:00.761Z,3018
2023-03-16T08:20:00.778Z,3054.3
2023-03-16T08:21:00.776Z,3018
2023-03-16T08:22:01.883Z,3018
2023-03-16T08:23:00.767Z,3018
2023-03-16T08:24:00.756Z,2946.7
2023-03-16T08:25:00.792Z,2946.7
2023-03-16T08:26:00.782Z,3018
2023-03-16T08:27:00.779Z,3091.1
2023-03-16T08:28:00.757Z,3128.2
2023-03-16T08:29:00.807Z,3165.8
2023-03-16T08:30:00.781Z,3165.8
2023-03-16T08:31:00.867Z,3204.1
2023-03-16T08:32:00.778Z,3165.8
2023-03-16T08:33:00.881Z,3204.1
2023-03-16T08:34:00.767Z,3242.6
2023-03-16T08:35:00.822Z,3242.6
2023-03-16T08:36:00.863Z,3281.6
2023-03-16T08:37:00.808Z,3321.1
2023-03-16T08:38:00.771Z,3321.1
2023-03-16T08:39:06.981Z,3204.1
2023-03-16T08:40:00.794Z,3281.6
2023-03-16T08:41:00.801Z,3321.1
2023-03-16T08:42:00.789Z,3321.1
2023-03-16T08:43:00.801Z,3321.1
2023-03-16T08:44:00.778Z,3361
2023-03-16T08:45:00.842Z,3361
2023-03-16T08:46:00.842Z,3361
2023-03-16T08:47:00.807Z,3361
2023-03-16T08:48:00.787Z,3361
2023-03-16T08:49:00.790Z,3401.4
2023-03-16T08:50:00.896Z,3442.3
2023-03-16T08:51:00.813Z,3401.4
2023-03-16T08:52:00.803Z,3401.4
2023-03-16T08:53:00.842Z,3442.3
2023-03-16T08:54:00.807Z,3401.4
2023-03-16T08:55:03.718Z,3401.4
2023-03-16T08:56:00.809Z,3321.1
2023-03-16T08:57:00.790Z,3361
2023-03-16T08:58:00.793Z,3321.1
2023-03-16T08:59:00.822Z,3321.1
2023-03-16T09:00:00.821Z,3321.1
2023-03-16T09:01:00.809Z,3321.1
2023-03-16T09:02:00.855Z,3401.4
2023-03-16T09:03:00.887Z,3401.4
2023-03-16T09:04:00.911Z,3361
2023-03-16T09:05:00.815Z,3401.4
2023-03-16T09:06:00.794Z,3401.4
2023-03-16T09:07:08.817Z,3442.3
2023-03-16T09:08:00.801Z,3483.7
2023-03-16T09:09:00.827Z,3483.7
2023-03-16T09:10:00.888Z,3483.7
2023-03-16T09:11:00.852Z,3483.7
2023-03-16T09:12:00.825Z,3483.7
2023-03-16T09:13:00.804Z,3442.3
2023-03-16T09:14:00.834Z,3442.3
2023-03-16T09:15:00.960Z,3483.7
2023-03-16T09:16:00.813Z,3483.7
2023-03-16T09:17:00.809Z,3525.6
2023-03-16T09:18:00.817Z,3483.7
2023-03-16T09:19:00.842Z,3483.7
2023-03-16T09:20:11.535Z,3483.7
2023-03-16T09:21:00.846Z,3525.6
2023-03-16T09:22:00.818Z,3525.6
2023-03-16T09:23:00.829Z,3442.3
2023-03-16T09:24:00.837Z,3525.6
2023-03-16T09:25:00.820Z,3483.7
2023-03-16T09:26:00.882Z,3525.6
2023-03-16T09:27:00.857Z,3401.4
2023-03-16T09:28:00.839Z,3361
2023-03-16T09:29:00.845Z,3361
2023-03-16T09:30:00.853Z,3401.4
2023-03-16T09:31:00.830Z,3401.4
2023-03-16T09:32:00.824Z,3401.4
2023-03-16T09:33:00.938Z,3401.4
2023-03-16T09:34:00.846Z,3442.3
2023-03-16T09:35:00.854Z,3281.6
2023-03-16T09:36:00.932Z,3401.4
2023-03-16T09:37:00.825Z,3321.1
2023-03-16T09:38:06.858Z,3321.1
2023-03-16T09:39:00.853Z,3401.4
2023-03-16T09:40:06.821Z,3442.3
2023-03-16T09:41:00.862Z,3483.7
2023-03-16T09:42:00.832Z,3525.6
2023-03-16T09:43:00.848Z,3568
2023-03-16T09:44:00.833Z,3568
2023-03-16T09:45:00.863Z,3568
2023-03-16T09:46:00.892Z,3525.6
2023-03-16T09:47:00.861Z,3568
2023-03-16T09:48:00.855Z,3525.6
2023-03-16T09:49:00.850Z,3483.7
2023-03-16T09:50:00.888Z,3611.1
2023-03-16T09:51:00.886Z,3483.7
2023-03-16T09:52:00.850Z,3483.7
2023-03-16T09:53:00.844Z,3525.6
2023-03-16T09:54:00.861Z,3483.7
2023-03-16T09:55:00.871Z,3568
2023-03-16T09:56:00.864Z,3611.1
2023-03-16T09:57:00.847Z,3568
2023-03-16T09:58:00.845Z,3568
2023-03-16T09:59:00.876Z,3568
2023-03-16T10:00:00.950Z,3525.6
2023-03-16T10:01:00.894Z,3483.7
2023-03-16T10:02:00.869Z,3568
2023-03-16T10:03:00.853Z,3654.5
2023-03-16T10:04:01.045Z,3654.5
2023-03-16T10:05:00.880Z,3654.5
2023-03-16T10:06:00.883Z,3654.5
2023-03-16T10:07:00.868Z,3698.5
2023-03-16T10:08:00.863Z,3788
2023-03-16T10:09:00.923Z,3742.9
2023-03-16T10:10:00.921Z,3833.5
2023-03-16T10:11:00.864Z,3833.5
2023-03-16T10:12:00.868Z,3833.5
2023-03-16T10:13:00.859Z,3788
2023-03-16T10:14:00.877Z,3788
2023-03-16T10:15:00.948Z,3788
2023-03-16T10:16:00.875Z,3788
2023-03-16T10:17:00.870Z,3742.9
2023-03-16T10:18:00.873Z,3698.5
2023-03-16T10:19:00.883Z,3698.5
2023-03-16T10:20:00.912Z,3568
2023-03-16T10:21:00.891Z,3483.7
2023-03-16T10:22:00.886Z,3654.5
2023-03-16T10:23:00.874Z,3568
2023-03-16T10:24:00.905Z,3568
2023-03-16T10:25:00.903Z,3568
2023-03-16T10:26:00.900Z,3568
2023-03-16T10:27:00.880Z,3568
2023-03-16T10:28:00.880Z,3525.6
2023-03-16T10:29:00.912Z,3483.7
2023-03-16T10:30:00.914Z,3568
2023-03-16T10:31:00.896Z,3525.6
2023-03-16T10:32:00.915Z,3525.6
2023-03-16T10:33:00.966Z,3442.3
2023-03-16T10:34:00.916Z,3525.6
2023-03-16T10:35:00.894Z,3654.5
2023-03-16T10:36:00.888Z,3654.5
2023-03-16T10:37:00.895Z,3654.5
2023-03-16T10:38:00.930Z,3568
2023-03-16T10:39:00.924Z,3611.1
2023-03-16T10:40:00.951Z,3611.1
2023-03-16T10:41:00.887Z,3654.5
2023-03-16T10:42:00.924Z,3654.5
2023-03-16T10:43:00.912Z,3611.1
2023-03-16T10:44:00.916Z,3654.5
2023-03-16T10:45:02.635Z,3611.1
2023-03-16T10:46:00.921Z,3654.5
2023-03-16T10:47:00.971Z,3611.1
2023-03-16T10:48:00.932Z,3525.6
2023-03-16T10:49:00.970Z,3483.7
2023-03-16T10:50:01.012Z,3483.7
2023-03-16T10:51:00.907Z,3568
2023-03-16T10:52:00.943Z,3611.1
2023-03-16T10:53:00.939Z,3654.5
2023-03-16T10:54:00.933Z,3611.1
2023-03-16T10:55:00.935Z,3611.1
2023-03-16T10:56:00.910Z,3611.1
2023-03-16T10:57:00.913Z,3654.5
2023-03-16T10:58:00.942Z,3611.1
2023-03-16T10:59:00.933Z,3611.1
2023-03-16T11:00:01.067Z,3611.1
2023-03-16T11:01:00.922Z,3568
2023-03-16T11:02:00.918Z,3568
2023-03-16T11:03:00.943Z,3568
2023-03-16T11:04:00.933Z,3568
2023-03-16T11:05:01.025Z,3568
2023-03-16T11:06:00.940Z,3568
2023-03-16T11:07:00.939Z,3611.1
2023-03-16T11:08:00.942Z,3568
2023-03-16T11:09:00.949Z,3654.5
2023-03-16T11:10:00.990Z,3654.5
2023-03-16T11:11:00.960Z,3654.5
2023-03-16T11:12:00.939Z,3654.5
2023-03-16T11:13:02.428Z,3654.5
2023-03-16T11:14:00.943Z,3611.1
2023-03-16T11:15:00.948Z,3281.6
2023-03-16T11:16:00.963Z,3128.2
2023-03-16T11:17:01.107Z,3568
2023-03-16T11:18:00.940Z,3525.6
2023-03-16T11:19:00.966Z,3611.1
2023-03-16T11:20:00.955Z,3654.5
2023-03-16T11:21:00.976Z,3654.5
2023-03-16T11:22:00.965Z,3568
2023-03-16T11:23:00.946Z,3654.5
2023-03-16T11:24:00.946Z,3654.5
2023-03-16T11:25:00.998Z,3611.1
2023-03-16T11:26:00.969Z,3611.1
2023-03-16T11:27:00.948Z,3654.5
2023-03-16T11:28:00.951Z,3654.5
2023-03-16T11:29:00.972Z,3611.1
2023-03-16T11:30:00.964Z,3611.1
2023-03-16T11:31:01.010Z,3611.1
2023-03-16T11:32:00.987Z,3568
2023-03-16T11:33:00.993Z,3568
2023-03-16T11:34:00.983Z,3568
2023-03-16T11:35:00.959Z,3611.1
2023-03-16T11:36:01.000Z,3525.6
2023-03-16T11:37:00.962Z,3654.5
2023-03-16T11:38:00.981Z,3654.5
2023-03-16T11:39:00.982Z,3654.5
2023-03-16T11:40:00.999Z,3698.5
2023-03-16T11:41:00.989Z,3742.9
2023-03-16T11:42:00.973Z,3742.9
2023-03-16T11:43:00.965Z,3788
2023-03-16T11:44:00.984Z,3833.5
2023-03-16T11:45:00.999Z,3833.5
2023-03-16T11:46:01.047Z,3926.3
2023-03-16T11:47:00.996Z,3973.5
2023-03-16T11:48:00.977Z,4021.3
2023-03-16T11:49:00.995Z,4021.3
2023-03-16T11:50:00.984Z,4118.8
2023-03-16T11:51:00.977Z,4269.1
2023-03-16T11:52:01.019Z,4372.4
2023-03-16T11:53:00.976Z,4532.1
2023-03-16T11:54:01.001Z,4811.5
2023-03-16T11:55:00.988Z,5231.6
2023-03-16T11:56:00.985Z,5756.7
2023-03-16T11:57:00.994Z,6259.4
2023-03-16T11:58:00.988Z,5967.1
2023-03-16T11:59:00.991Z,6334.7
2023-03-16T12:00:02.015Z,5896.2
2023-03-16T12:01:00.982Z,6334.7
2023-03-16T12:02:01.446Z,5756.7
2023-03-16T12:03:01.018Z,5358.2
2023-03-16T12:04:01.095Z,5294.6
2023-03-16T12:05:01.013Z,3401.4
2023-03-16T12:06:07.788Z,2742.6
2023-03-16T12:07:01.036Z,2492.4
2023-03-16T12:08:01.014Z,2462.8
2023-03-16T12:09:00.993Z,2492.4
2023-03-16T12:10:00.943Z,2809
2023-03-16T12:11:00.901Z,2911.7
2023-03-16T12:12:00.872Z,3091.1
2023-03-16T12:13:00.843Z,3321.1
2023-03-16T12:14:00.842Z,3788
2023-03-16T12:15:00.794Z,4118.8
2023-03-16T12:16:00.772Z,4372.4
2023-03-16T12:17:02.427Z,5896.2
2023-03-16T12:18:00.710Z,6038.9
2023-03-16T12:19:00.709Z,6185
2023-03-16T12:20:00.668Z,6334.7
2023-03-16T12:21:00.610Z,6487.9
2023-03-16T12:22:00.578Z,6725.2
2023-03-16T12:23:00.563Z,6887.9
2023-03-16T12:24:00.578Z,6806
2023-03-16T12:25:00.642Z,6887.9
2023-03-16T12:26:00.566Z,6806
2023-03-16T12:27:00.566Z,6806
2023-03-16T12:28:00.569Z,6111.5
2023-03-16T12:29:00.596Z,5688.3
2023-03-16T12:30:00.669Z,5422.7
2023-03-16T12:31:00.568Z,4927.9
2023-03-16T12:32:00.586Z,4811.5
2023-03-16T12:33:00.802Z,4478.2
2023-03-16T12:34:00.593Z,4320.5
2023-03-16T12:35:00.646Z,4754.3
2023-03-16T12:36:00.673Z,4697.8
2023-03-16T12:37:00.575Z,5294.6
2023-03-16T12:38:00.582Z,5358.2
2023-03-16T12:39:00.596Z,6111.5
2023-03-16T12:40:00.631Z,5756.7
2023-03-16T12:41:00.590Z,6038.9
2023-03-16T12:42:00.583Z,6038.9
2023-03-16T12:43:00.599Z,5967.1
2023-03-16T12:44:00.630Z,5896.2
2023-03-16T12:45:00.610Z,5553.9
2023-03-16T12:46:00.647Z,5231.6
2023-03-16T12:47:00.600Z,4168.3
2023-03-16T12:48:00.587Z,3698.5
2023-03-16T12:49:00.610Z,4425
2023-03-16T12:50:00.649Z,4811.5
2023-03-16T12:51:00.598Z,4869.3
2023-03-16T12:52:00.594Z,4754.3
2023-03-16T12:53:00.621Z,4425
2023-03-16T12:54:00.596Z,4754.3
2023-03-16T12:55:00.618Z,4425
2023-03-16T12:56:00.592Z,4532.1
2023-03-16T12:57:00.598Z,4811.5
2023-03-16T12:58:00.610Z,4927.9
2023-03-16T12:59:00.599Z,4869.3
2023-03-16T13:00:00.655Z,4754.3
2023-03-16T13:01:00.660Z,4642
2023-03-16T13:02:00.629Z,4532.1
2023-03-16T13:03:00.613Z,4269.1
2023-03-16T13:04:00.662Z,4218.4
2023-03-16T13:05:00.634Z,4218.4
2023-03-16T13:06:00.613Z,4118.8